createdAt,value
2017-06-17T00:00:04.690Z,4.30
2017-06-17T00:02:33.101Z,3.77
2017-06-17T00:05:01.471Z,4.73
2017-06-17T00:07:30.114Z,5.63
2017-06-17T00:09:59.344Z,4.50
2017-06-17T00:12:27.651Z,4.57
2017-06-17T00:14:55.963Z,5.27
2017-06-17T00:17:24.317Z,4.30
2017-06-17T00:19:53.191Z,4.10
2017-06-17T00:22:21.815Z,4.90
2017-06-17T00:24:51.102Z,4.10
2017-06-17T00:27:19.906Z,4.03
2017-06-17T00:29:49.208Z,5.70
2017-06-17T00:32:18.006Z,4.80
2017-06-17T00:34:46.321Z,5.30
2017-06-17T00:37:14.641Z,4.83
2017-06-17T00:39:42.965Z,6.60
2017-06-17T00:42:11.341Z,3.90
2017-06-17T00:44:39.621Z,4.93
2017-06-17T00:47:08.029Z,5.00
2017-06-17T00:49:37.116Z,6.00
2017-06-17T00:52:06.206Z,3.60
2017-06-17T00:54:34.517Z,5.30
2017-06-17T00:57:03.313Z,5.33
2017-06-17T00:59:32.680Z,5.00
2017-06-17T01:02:02.745Z,4.30
2017-06-17T01:04:32.005Z,4.67
2017-06-17T01:07:00.323Z,5.43
2017-06-17T01:09:30.051Z,5.33
2017-06-17T01:11:59.425Z,4.63
2017-06-17T01:14:28.282Z,4.03
2017-06-17T01:16:56.573Z,4.27
2017-06-17T01:19:24.956Z,5.00
2017-06-17T01:21:53.349Z,5.20
2017-06-17T01:24:22.964Z,4.03
2017-06-17T01:26:53.397Z,4.50
2017-06-17T01:29:22.272Z,5.20
2017-06-17T01:31:50.584Z,4.23
2017-06-17T01:34:18.950Z,4.73
2017-06-17T01:36:47.284Z,5.97
2017-06-17T01:39:15.605Z,3.70
2017-06-17T01:41:44.019Z,5.67
2017-06-17T01:44:12.603Z,4.70
2017-06-17T01:46:41.003Z,5.20
2017-06-17T01:49:10.473Z,4.03
2017-06-17T01:51:38.935Z,4.17
2017-06-17T01:54:07.554Z,3.73
2017-06-17T01:56:36.625Z,4.00
2017-06-17T01:59:04.934Z,3.53
2017-06-17T02:01:33.313Z,4.13
2017-06-17T02:04:02.102Z,3.83
2017-06-17T02:06:31.366Z,4.90
2017-06-17T02:08:59.694Z,4.40
2017-06-17T02:11:27.986Z,3.80
2017-06-17T02:13:56.280Z,5.20
2017-06-17T02:16:24.645Z,4.37
2017-06-17T02:18:53.899Z,4.00
2017-06-17T02:21:27.884Z,4.97
2017-06-17T02:23:56.502Z,4.03
2017-06-17T02:26:24.815Z,4.07
2017-06-17T02:28:54.230Z,3.90
2017-06-17T02:31:22.637Z,4.30
2017-06-17T02:33:50.952Z,3.83
2017-06-17T02:36:19.287Z,4.70
2017-06-17T02:38:48.047Z,4.00
2017-06-17T02:41:16.374Z,3.83
2017-06-17T02:43:45.462Z,4.20
2017-06-17T02:46:13.753Z,4.40
2017-06-17T02:48:45.414Z,4.27
2017-06-17T02:51:13.705Z,5.13
2017-06-17T02:53:42.029Z,4.27
2017-06-17T02:56:10.365Z,4.10
2017-06-17T02:58:38.646Z,4.77
2017-06-17T03:01:08.021Z,3.90
2017-06-17T03:03:36.325Z,3.80
2017-06-17T03:06:05.320Z,5.27
2017-06-17T03:08:33.616Z,3.90
2017-06-17T03:11:01.913Z,4.20
2017-06-17T03:13:31.648Z,4.83
2017-06-17T03:16:00.884Z,4.03
2017-06-17T03:18:29.453Z,4.70
2017-06-17T03:20:57.957Z,3.73
2017-06-17T03:23:26.234Z,4.63
2017-06-17T03:25:55.682Z,3.60
2017-06-17T03:28:24.433Z,4.93
2017-06-17T03:30:52.713Z,4.43
2017-06-17T03:33:21.752Z,4.07
2017-06-17T03:35:50.812Z,5.00
2017-06-17T03:38:19.574Z,5.00
2017-06-17T03:40:47.856Z,4.87
2017-06-17T03:43:16.149Z,3.70
2017-06-17T03:45:45.193Z,3.70
2017-06-17T03:48:13.484Z,4.57
2017-06-17T03:50:42.198Z,4.30
2017-06-17T03:53:11.248Z,4.30
2017-06-17T03:55:40.682Z,4.30
2017-06-17T03:58:09.657Z,3.70
2017-06-17T04:00:38.269Z,4.10
2017-06-17T04:03:06.603Z,4.20
2017-06-17T04:05:35.217Z,4.97
2017-06-17T04:08:03.597Z,4.00
2017-06-17T04:10:31.912Z,3.90
2017-06-17T04:13:01.092Z,4.50
2017-06-17T04:15:29.472Z,4.47
2017-06-17T04:17:57.858Z,4.20
2017-06-17T04:20:26.128Z,3.47
2017-06-17T04:22:54.509Z,3.63
2017-06-17T04:25:22.885Z,5.30
2017-06-17T04:27:51.202Z,4.47
2017-06-17T04:30:21.003Z,4.37
2017-06-17T04:32:50.449Z,4.53
2017-06-17T04:35:19.210Z,3.90
2017-06-17T04:37:48.317Z,3.77
2017-06-17T04:40:16.779Z,3.60
2017-06-17T04:42:45.070Z,3.90
2017-06-17T04:45:13.366Z,3.50
2017-06-17T04:47:41.729Z,4.57
2017-06-17T04:50:10.016Z,4.00
2017-06-17T04:52:39.887Z,4.10
2017-06-17T04:55:08.207Z,3.40
2017-06-17T04:57:36.592Z,3.33
2017-06-17T05:00:05.868Z,3.73
2017-06-17T05:02:34.545Z,4.37
2017-06-17T05:05:03.913Z,4.13
2017-06-17T05:07:32.202Z,3.10
2017-06-17T05:10:02.029Z,3.20
2017-06-17T05:12:31.198Z,4.03
2017-06-17T05:14:59.578Z,4.37
2017-06-17T05:17:27.890Z,3.47
2017-06-17T05:19:57.166Z,5.07
2017-06-17T05:22:25.542Z,5.40
2017-06-17T05:24:53.937Z,4.07
2017-06-17T05:27:22.261Z,4.30
2017-06-17T05:29:50.631Z,4.40
2017-06-17T05:32:19.608Z,4.33
2017-06-17T05:34:48.456Z,4.27
2017-06-17T05:37:16.776Z,3.50
2017-06-17T05:39:45.084Z,4.47
2017-06-17T05:42:14.249Z,3.50
2017-06-17T05:44:42.587Z,4.87
2017-06-17T05:47:12.255Z,3.47
2017-06-17T05:49:40.640Z,5.67
2017-06-17T05:52:09.113Z,5.17
2017-06-17T05:54:37.692Z,3.80
2017-06-17T05:57:06.005Z,3.57
2017-06-17T05:59:34.301Z,3.20
2017-06-17T06:02:03.430Z,3.53
2017-06-17T06:04:31.720Z,4.80
2017-06-17T06:07:00.653Z,3.60
2017-06-17T06:09:29.470Z,2.70
2017-06-17T06:11:57.736Z,4.33
2017-06-17T06:14:27.224Z,3.93
2017-06-17T06:16:56.030Z,3.70
2017-06-17T06:19:24.632Z,3.70
2017-06-17T06:21:53.709Z,3.43
2017-06-17T06:24:22.007Z,3.87
2017-06-17T06:26:50.796Z,3.60
2017-06-17T06:29:19.189Z,3.07
2017-06-17T06:31:48.499Z,3.60
2017-06-17T06:34:16.788Z,3.00
2017-06-17T06:36:47.984Z,3.10
2017-06-17T06:39:16.281Z,2.77
2017-06-17T06:41:44.589Z,3.53
2017-06-17T06:44:13.991Z,3.07
2017-06-17T06:46:42.284Z,3.40
2017-06-17T06:49:11.386Z,2.93
2017-06-17T06:51:40.874Z,3.50
2017-06-17T06:54:10.427Z,3.63
2017-06-17T06:56:39.756Z,3.20
2017-06-17T06:59:08.061Z,3.90
2017-06-17T07:01:36.354Z,2.47
2017-06-17T07:04:04.939Z,2.77
2017-06-17T07:06:35.285Z,3.83
2017-06-17T07:09:05.083Z,2.80
2017-06-17T07:11:34.697Z,3.43
2017-06-17T07:14:03.080Z,3.07
2017-06-17T07:16:31.454Z,2.67
2017-06-17T07:18:59.833Z,2.20
2017-06-17T07:21:29.835Z,2.57
2017-06-17T07:23:59.030Z,2.83
2017-06-17T07:26:28.334Z,3.23
2017-06-17T07:28:57.789Z,2.70
2017-06-17T07:31:26.905Z,2.63
2017-06-17T07:33:56.300Z,3.10
2017-06-17T07:36:24.963Z,2.73
2017-06-17T07:38:54.563Z,3.50
2017-06-17T07:41:23.142Z,3.07
2017-06-17T07:43:51.563Z,2.77
2017-06-17T07:46:20.150Z,2.73
2017-06-17T07:48:48.659Z,4.70
2017-06-17T07:51:16.927Z,3.90
2017-06-17T07:53:46.423Z,3.60
2017-06-17T07:56:15.873Z,2.50
2017-06-17T07:58:45.593Z,2.80
2017-06-17T08:01:14.637Z,3.20
2017-06-17T08:03:43.721Z,3.10
2017-06-17T08:06:12.060Z,3.37
2017-06-17T08:08:41.117Z,3.83
2017-06-17T08:11:09.718Z,3.10
2017-06-17T08:13:38.210Z,2.80
2017-06-17T08:16:06.899Z,2.90
2017-06-17T08:18:36.598Z,2.37
2017-06-17T08:21:05.665Z,2.60
2017-06-17T08:23:34.285Z,2.40
2017-06-17T08:26:04.470Z,3.30
2017-06-17T08:28:32.818Z,2.67
2017-06-17T08:31:02.437Z,3.27
2017-06-17T08:33:31.732Z,3.00
2017-06-17T08:36:00.727Z,3.20
2017-06-17T08:38:29.003Z,2.47
2017-06-17T08:40:58.237Z,2.83
2017-06-17T08:43:27.404Z,2.30
2017-06-17T08:45:56.628Z,3.17
2017-06-17T08:48:26.344Z,3.33
2017-06-17T08:50:55.009Z,2.47
2017-06-17T08:53:23.320Z,2.90
2017-06-17T08:55:52.473Z,2.80
2017-06-17T08:58:20.788Z,2.37
2017-06-17T09:00:50.086Z,3.20
2017-06-17T09:03:18.401Z,2.87
2017-06-17T09:05:47.504Z,2.70
2017-06-17T09:08:16.976Z,4.13
2017-06-17T09:10:45.465Z,3.30
2017-06-17T09:13:14.151Z,3.33
2017-06-17T09:15:42.418Z,3.57
2017-06-17T09:18:11.313Z,3.13
2017-06-17T09:20:41.164Z,2.90
2017-06-17T09:23:10.229Z,2.37
2017-06-17T09:25:38.683Z,2.50
2017-06-17T09:28:06.983Z,2.97
2017-06-17T09:30:36.081Z,2.33
2017-06-17T09:33:05.006Z,2.20
2017-06-17T09:35:34.748Z,2.93
2017-06-17T09:38:04.170Z,2.97
2017-06-17T09:40:33.219Z,3.47
2017-06-17T09:43:02.332Z,2.70
2017-06-17T09:45:30.687Z,3.00
2017-06-17T09:47:59.337Z,2.40
2017-06-17T09:50:28.451Z,2.53
2017-06-17T09:52:56.781Z,2.53
2017-06-17T09:55:27.288Z,4.03
2017-06-17T09:57:56.494Z,1.97
2017-06-17T10:00:25.721Z,2.27
2017-06-17T10:02:54.325Z,2.40
2017-06-17T10:05:23.459Z,2.80
2017-06-17T10:07:52.881Z,2.93
2017-06-17T10:10:22.637Z,2.60
2017-06-17T10:12:52.103Z,2.70
2017-06-17T10:15:20.757Z,3.20
2017-06-17T10:17:49.812Z,2.10
2017-06-17T10:20:19.256Z,2.70
2017-06-17T10:22:49.041Z,2.37
2017-06-17T10:25:17.361Z,2.90
2017-06-17T10:27:46.112Z,2.50
2017-06-17T10:30:15.880Z,2.43
2017-06-17T10:32:44.180Z,2.87
2017-06-17T10:35:13.226Z,3.60
2017-06-17T10:37:43.506Z,2.20
2017-06-17T10:40:11.823Z,2.73
2017-06-17T10:42:40.225Z,2.43
2017-06-17T10:45:09.324Z,2.70
2017-06-17T10:47:39.165Z,2.17
2017-06-17T10:50:07.513Z,2.40
2017-06-17T10:55:13.859Z,3.43
2017-06-17T10:57:44.957Z,3.20
2017-06-17T11:00:13.972Z,2.73
2017-06-17T11:02:43.074Z,2.57
2017-06-17T11:05:15.797Z,2.10
2017-06-17T11:07:44.117Z,2.10
2017-06-17T11:10:14.024Z,2.57
2017-06-17T11:12:42.284Z,2.03
2017-06-17T11:15:11.981Z,2.90
2017-06-17T11:17:41.549Z,2.83
2017-06-17T11:20:10.475Z,2.70
2017-06-17T11:22:38.857Z,2.73
2017-06-17T11:25:07.805Z,2.50
2017-06-17T11:27:36.090Z,3.17
2017-06-17T11:30:05.172Z,1.97
2017-06-17T11:32:33.789Z,2.27
2017-06-17T11:35:02.964Z,3.03
2017-06-17T11:37:31.937Z,2.30
2017-06-17T11:40:01.384Z,2.33
2017-06-17T11:42:30.831Z,3.20
2017-06-17T11:45:00.632Z,3.03
2017-06-17T11:47:29.700Z,2.67
2017-06-17T11:49:59.289Z,2.40
2017-06-17T11:52:28.753Z,1.97
2017-06-17T11:54:57.808Z,2.27
2017-06-17T11:57:26.164Z,2.17
2017-06-17T11:59:54.516Z,2.80
2017-06-17T12:02:23.983Z,3.10
2017-06-17T12:04:52.281Z,2.07
2017-06-17T12:07:20.626Z,2.43
2017-06-17T12:09:49.661Z,2.50
2017-06-17T12:12:17.980Z,2.50
2017-06-17T12:14:47.045Z,2.30
2017-06-17T12:17:15.832Z,2.30
2017-06-17T12:19:44.234Z,1.73
2017-06-17T12:22:12.529Z,1.80
2017-06-17T12:24:40.883Z,2.03
2017-06-17T12:27:09.180Z,1.80
2017-06-17T12:29:37.921Z,1.57
2017-06-17T12:32:06.249Z,1.60
2017-06-17T12:34:34.617Z,1.67
2017-06-17T12:37:03.003Z,2.00
2017-06-17T12:39:32.446Z,1.70
2017-06-17T12:42:01.503Z,1.50
2017-06-17T12:44:29.912Z,1.80
2017-06-17T12:46:58.209Z,2.07
2017-06-17T12:49:27.380Z,1.63
2017-06-17T12:51:55.752Z,2.00
2017-06-17T12:54:26.022Z,1.77
2017-06-17T12:56:55.205Z,2.13
2017-06-17T12:59:25.420Z,1.47
2017-06-17T13:01:54.557Z,2.07
2017-06-17T13:04:23.721Z,1.60
2017-06-17T13:06:52.775Z,1.80
2017-06-17T13:09:21.081Z,2.40
2017-06-17T13:11:49.494Z,1.87
2017-06-17T13:14:17.849Z,1.90
2017-06-17T13:16:46.652Z,1.67
2017-06-17T13:19:14.961Z,1.50
2017-06-17T13:21:43.309Z,1.60
2017-06-17T13:24:11.617Z,1.70
2017-06-17T13:26:40.314Z,1.77
2017-06-17T13:29:09.902Z,2.47
2017-06-17T13:31:38.187Z,2.00
2017-06-17T13:34:06.498Z,2.13
2017-06-17T13:36:39.596Z,2.33
2017-06-17T13:39:08.701Z,1.60
2017-06-17T13:41:37.793Z,1.53
2017-06-17T13:44:08.809Z,1.90
2017-06-17T13:46:37.137Z,1.60
2017-06-17T13:49:06.174Z,1.50
2017-06-17T13:51:34.917Z,1.83
2017-06-17T13:54:04.023Z,2.10
2017-06-17T13:56:32.797Z,2.27
2017-06-17T13:59:02.041Z,1.67
2017-06-17T14:01:31.197Z,1.60
2017-06-17T14:03:59.592Z,2.13
2017-06-17T14:06:28.640Z,1.93
2017-06-17T14:08:56.986Z,1.50
2017-06-17T14:11:26.392Z,1.90
2017-06-17T14:13:55.457Z,1.87
2017-06-17T14:16:23.784Z,1.87
2017-06-17T14:18:52.077Z,1.77
2017-06-17T14:21:39.278Z,1.50
2017-06-17T14:24:09.287Z,1.70
2017-06-17T14:26:38.357Z,2.43
2017-06-17T14:29:06.841Z,2.20
2017-06-17T14:31:35.120Z,1.40
2017-06-17T14:34:03.805Z,2.80
2017-06-17T14:36:32.399Z,2.00
2017-06-17T14:39:01.567Z,1.27
2017-06-17T14:41:29.888Z,1.93
2017-06-17T14:43:58.192Z,1.80
2017-06-17T14:46:27.360Z,2.63
2017-06-17T14:48:57.403Z,1.90
2017-06-17T14:51:27.310Z,1.83
2017-06-17T14:53:55.911Z,2.20
2017-06-17T14:56:24.973Z,1.30
2017-06-17T14:58:53.301Z,2.10
2017-06-17T15:01:22.349Z,2.00
2017-06-17T15:03:50.805Z,2.03
2017-06-17T15:06:19.137Z,1.50
2017-06-17T15:08:48.032Z,1.73
2017-06-17T15:11:17.111Z,1.80
2017-06-17T15:13:46.027Z,1.50
2017-06-17T15:16:14.416Z,1.50
2017-06-17T15:18:42.929Z,1.93
2017-06-17T15:21:12.030Z,1.50
2017-06-17T15:23:41.645Z,1.80
2017-06-17T15:26:10.001Z,1.60
2017-06-17T15:28:38.316Z,2.00
2017-06-17T15:31:07.070Z,1.70
2017-06-17T15:33:35.356Z,2.23
2017-06-17T15:36:03.954Z,2.00
2017-06-17T15:38:32.252Z,1.97
2017-06-17T15:41:01.352Z,2.30
2017-06-17T15:43:30.036Z,2.40
2017-06-17T15:46:00.084Z,1.73
2017-06-17T15:48:28.402Z,1.93
2017-06-17T15:50:56.723Z,2.03
2017-06-17T15:53:26.188Z,2.03
2017-06-17T15:55:54.488Z,1.60
2017-06-17T15:58:22.983Z,1.73
2017-06-17T16:00:51.355Z,1.73
2017-06-17T16:03:19.786Z,2.30
2017-06-17T16:05:48.978Z,1.87
2017-06-17T16:08:18.028Z,1.90
2017-06-17T16:10:46.339Z,2.00
2017-06-17T16:13:14.909Z,1.40
2017-06-17T16:15:43.841Z,2.43
2017-06-17T16:18:12.554Z,1.70
2017-06-17T16:20:40.864Z,2.57
2017-06-17T16:23:09.157Z,2.33
2017-06-17T16:25:37.892Z,2.20
2017-06-17T16:28:06.338Z,2.17
2017-06-17T16:30:34.745Z,2.37
2017-06-17T16:33:03.092Z,3.50
2017-06-17T16:35:32.033Z,2.97
2017-06-17T16:38:01.228Z,2.73
2017-06-17T16:40:29.533Z,2.30
2017-06-17T16:42:58.890Z,1.97
2017-06-17T16:45:27.300Z,2.40
2017-06-17T16:47:55.609Z,2.60
2017-06-17T16:50:24.753Z,2.33
2017-06-17T16:52:53.140Z,1.93
2017-06-17T16:55:21.861Z,1.57
2017-06-17T16:57:50.169Z,1.93
2017-06-17T17:00:19.212Z,1.50
2017-06-17T17:02:47.852Z,1.90
2017-06-17T17:05:17.006Z,2.00
2017-06-17T17:07:45.831Z,2.20
2017-06-17T17:10:14.938Z,2.70
2017-06-17T17:12:43.303Z,2.13
2017-06-17T17:15:13.306Z,2.67
2017-06-17T17:17:42.202Z,2.03
2017-06-17T17:20:10.580Z,2.60
2017-06-17T17:22:39.102Z,2.10
2017-06-17T17:25:08.883Z,2.33
2017-06-17T17:27:37.257Z,2.47
2017-06-17T17:30:06.761Z,1.70
2017-06-17T17:32:35.164Z,2.07
2017-06-17T17:35:03.460Z,1.80
2017-06-17T17:37:31.792Z,2.00
2017-06-17T17:40:00.403Z,2.60
2017-06-17T17:42:28.812Z,2.00
2017-06-17T17:44:57.119Z,2.47
2017-06-17T17:47:26.169Z,2.93
2017-06-17T17:49:54.727Z,2.40
2017-06-17T17:52:24.445Z,2.93
2017-06-17T17:54:52.809Z,2.10
2017-06-17T17:57:22.494Z,1.93
2017-06-17T17:59:51.268Z,2.20
2017-06-17T18:02:19.659Z,2.37
2017-06-17T18:04:48.034Z,2.23
2017-06-17T18:07:16.421Z,2.10
2017-06-17T18:09:44.994Z,1.80
2017-06-17T18:12:13.295Z,2.37
2017-06-17T18:14:41.797Z,1.80
2017-06-17T18:17:10.164Z,1.80
2017-06-17T18:19:38.464Z,2.00
2017-06-17T18:22:07.556Z,1.70
2017-06-17T18:24:35.925Z,2.33
2017-06-17T18:27:04.346Z,2.90
2017-06-17T18:29:33.424Z,2.10
2017-06-17T18:32:02.101Z,2.37
2017-06-17T18:34:31.013Z,2.40
2017-06-17T18:37:00.432Z,2.27
2017-06-17T18:39:28.710Z,2.47
2017-06-17T18:42:01.860Z,2.30
2017-06-17T18:44:30.129Z,2.60
2017-06-17T18:46:58.524Z,2.17
2017-06-17T18:49:26.853Z,2.57
2017-06-17T18:51:56.138Z,2.23
2017-06-17T18:54:24.428Z,3.10
2017-06-17T18:56:52.703Z,2.30
2017-06-17T18:59:21.025Z,3.03
2017-06-17T19:01:49.581Z,2.63
2017-06-17T19:04:18.659Z,2.20
2017-06-17T19:06:46.978Z,2.53
2017-06-17T19:09:16.099Z,2.80
2017-06-17T19:11:45.194Z,3.10
2017-06-17T19:14:15.313Z,2.70
2017-06-17T19:16:43.628Z,2.73
2017-06-17T19:19:12.179Z,3.00
2017-06-17T19:21:41.338Z,2.80
2017-06-17T19:24:09.678Z,3.03
2017-06-17T19:26:37.977Z,3.10
2017-06-17T19:29:06.282Z,2.80
2017-06-17T19:31:35.205Z,2.90
2017-06-17T19:34:04.278Z,2.47
2017-06-17T19:36:32.615Z,2.97
2017-06-17T19:39:00.910Z,2.93
2017-06-17T19:41:29.201Z,2.73
2017-06-17T19:43:58.146Z,2.97
2017-06-17T19:46:27.254Z,3.23
2017-06-17T19:48:56.237Z,3.13
2017-06-17T19:51:25.222Z,2.90
2017-06-17T19:53:53.730Z,3.20
2017-06-17T19:56:22.010Z,2.97
2017-06-17T19:58:51.076Z,3.93
2017-06-17T20:01:19.420Z,3.63
2017-06-17T20:03:47.731Z,3.00
2017-06-17T20:06:16.314Z,3.90
2017-06-17T20:08:46.073Z,3.60
2017-06-17T20:11:14.537Z,3.53
2017-06-17T20:13:42.853Z,3.43
2017-06-17T20:16:11.911Z,3.67
2017-06-17T20:18:40.213Z,3.40
2017-06-17T20:21:14.913Z,3.67
2017-06-17T20:23:43.246Z,3.80
2017-06-17T20:26:12.329Z,3.70
2017-06-17T20:28:41.409Z,3.63
2017-06-17T20:31:09.712Z,3.77
2017-06-17T20:33:38.936Z,2.80
2017-06-17T20:36:08.106Z,3.43
2017-06-17T20:38:37.318Z,4.60
2017-06-17T20:41:06.511Z,6.37
2017-06-17T20:43:35.912Z,7.80
2017-06-17T20:46:04.194Z,6.50
2017-06-17T20:48:32.537Z,6.53
2017-06-17T20:51:01.054Z,5.73
2017-06-17T20:53:29.560Z,6.40
2017-06-17T20:55:58.262Z,6.30
2017-06-17T20:58:27.558Z,6.90
2017-06-17T21:00:56.645Z,5.90
2017-06-17T21:03:25.109Z,4.63
2017-06-17T21:05:54.081Z,5.40
2017-06-17T21:08:22.616Z,4.60
2017-06-17T21:10:50.920Z,5.83
2017-06-17T21:13:20.933Z,5.00
2017-06-17T21:15:50.069Z,4.30
2017-06-17T21:18:18.346Z,5.23
2017-06-17T21:20:46.628Z,5.30
2017-06-17T21:23:15.008Z,3.70
2017-06-17T21:25:43.326Z,5.23
2017-06-17T21:28:11.725Z,5.03
2017-06-17T21:30:40.024Z,4.70
2017-06-17T21:33:09.315Z,4.20
2017-06-17T21:35:37.635Z,4.03
2017-06-17T21:38:06.806Z,5.50
2017-06-17T21:40:35.153Z,4.77
2017-06-17T21:43:03.456Z,4.30
2017-06-17T21:45:32.663Z,5.23
2017-06-17T21:48:00.993Z,4.97
2017-06-17T21:50:29.345Z,6.00
2017-06-17T21:52:59.261Z,6.37
2017-06-17T21:55:27.553Z,6.00
2017-06-17T21:57:56.632Z,7.47
2017-06-17T22:00:25.093Z,5.57
2017-06-17T22:02:53.424Z,6.10
2017-06-17T22:05:21.733Z,7.10
2017-06-17T22:07:50.044Z,5.50
2017-06-17T22:10:18.860Z,6.20
2017-06-17T22:12:47.152Z,6.83
2017-06-17T22:15:16.242Z,6.30
2017-06-17T22:17:44.627Z,6.90
2017-06-17T22:20:13.961Z,7.20
2017-06-17T22:22:43.030Z,6.93
2017-06-17T22:25:11.392Z,7.60
2017-06-17T22:27:39.707Z,7.60
2017-06-17T22:30:08.086Z,6.13
2017-06-17T22:32:36.363Z,8.07
2017-06-17T22:35:04.701Z,7.80
2017-06-17T22:37:33.902Z,7.03
2017-06-17T22:40:06.269Z,6.90
2017-06-17T22:42:34.589Z,7.27
2017-06-17T22:45:02.874Z,7.87
2017-06-17T22:47:31.221Z,6.40
2017-06-17T22:50:00.085Z,7.00
2017-06-17T22:52:29.492Z,6.30
2017-06-17T22:54:58.568Z,6.40
2017-06-17T22:57:26.921Z,5.93
2017-06-17T22:59:55.238Z,6.50
2017-06-17T23:02:24.304Z,6.00
2017-06-17T23:04:52.597Z,6.57
2017-06-17T23:07:21.793Z,8.43
2017-06-17T23:09:50.089Z,7.77
2017-06-17T23:12:18.384Z,8.37
2017-06-17T23:14:46.704Z,6.80
2017-06-17T23:17:15.031Z,5.97
2017-06-17T23:19:43.365Z,7.07
2017-06-17T23:22:12.138Z,7.00
2017-06-17T23:24:41.195Z,7.70
2017-06-17T23:27:09.693Z,6.57
2017-06-17T23:29:38.065Z,7.43
2017-06-17T23:32:07.182Z,6.60
2017-06-17T23:34:35.469Z,5.67
2017-06-17T23:37:03.828Z,6.70
2017-06-17T23:39:32.224Z,7.47
2017-06-17T23:42:00.777Z,7.00
2017-06-17T23:44:29.911Z,6.70
2017-06-17T23:46:58.297Z,6.97
2017-06-17T23:49:26.636Z,7.73
2017-06-17T23:51:55.630Z,7.10
2017-06-17T23:54:23.952Z,6.57
2017-06-17T23:56:52.954Z,8.23
2017-06-17T23:59:21.881Z,6.53
